Time;durP1;ratioP1;P1;durP2;ratioP2;P2;SDS_P1;SDS_P2;PMS_P1;PMS_P2;Temp;Humidity;BMP_temperature;BMP_pressure;BME280_temperature;BME280_humidity;BME280_pressure;Samples;Min_cycle;Max_cycle;Signal;HPM_P1;HPM_P2
2023/05/06 00:00:50;;;;;;;0.40;0.40;;;18.10;83.30;;;;;;4866270;29;20217;-74
2023/05/06 00:03:18;;;;;;;3.30;1.20;;;18.10;83.30;;;;;;4869506;29;20272;-76
2023/05/06 00:05:48;;;;;;;2.93;1.73;;;18.10;83.30;;;;;;4868907;29;20205;-75
2023/05/06 00:08:17;;;;;;;1.00;0.70;;;18.10;83.20;;;;;;4868535;29;20201;-74
2023/05/06 00:10:47;;;;;;;5.30;1.03;;;18.00;83.10;;;;;;4863465;29;20212;-74
2023/05/06 00:13:15;;;;;;;3.53;1.10;;;18.00;83.00;;;;;;4872392;29;20458;-75
2023/05/06 00:15:43;;;;;;;1.00;0.57;;;18.00;83.00;;;;;;4871706;29;20202;-74
2023/05/06 00:18:13;;;;;;;1.30;0.97;;;18.00;82.90;;;;;;4872390;29;20597;-75
2023/05/06 00:20:42;;;;;;;1.47;1.30;;;18.00;83.00;;;;;;4869139;29;20948;-74
2023/05/06 00:23:11;;;;;;;2.90;1.03;;;18.00;82.80;;;;;;4874488;29;20262;-74
2023/05/06 00:25:39;;;;;;;3.07;0.80;;;17.90;83.60;;;;;;4874297;29;20254;-75
2023/05/06 00:28:09;;;;;;;1.30;0.77;;;17.90;82.70;;;;;;4874469;29;20258;-74
2023/05/06 00:30:37;;;;;;;1.10;1.00;;;17.90;82.70;;;;;;4873391;29;20205;-74
2023/05/06 00:33:06;;;;;;;0.60;0.53;;;17.90;82.70;;;;;;4876729;29;20685;-74
2023/05/06 00:35:34;;;;;;;2.23;0.67;;;17.90;82.60;;;;;;4873806;29;20229;-75
2023/05/06 00:38:09;;;;;;;0.67;0.67;;;17.90;82.60;;;;;;4868963;29;20627;-74
2023/05/06 00:40:38;;;;;;;0.87;0.87;;;17.90;82.50;;;;;;4865006;29;20284;-75
2023/05/06 00:43:06;;;;;;;0.77;0.57;;;17.90;82.50;;;;;;4875898;29;20674;-74
2023/05/06 00:45:36;;;;;;;1.43;1.03;;;17.90;82.40;;;;;;4870656;29;20201;-74
2023/05/06 00:48:06;;;;;;;2.37;1.07;;;17.90;82.40;;;;;;4872835;29;20216;-75
2023/05/06 00:50:35;;;;;;;0.50;0.50;;;17.80;82.50;;;;;;4867808;29;20733;-75
2023/05/06 00:53:05;;;;;;;1.23;0.80;;;17.80;82.20;;;;;;4869123;29;20595;-75
2023/05/06 00:55:33;;;;;;;2.10;1.50;;;17.80;82.20;;;;;;4871223;29;20620;-75
2023/05/06 00:58:02;;;;;;;0.33;0.33;;;17.80;82.20;;;;;;4873986;29;20229;-75
2023/05/06 01:00:31;;;;;;;1.83;0.83;;;17.80;82.10;;;;;;4868359;29;20309;-75
2023/05/06 01:03:00;;;;;;;0.87;0.87;;;17.80;82.10;;;;;;4874431;29;20253;-74
2023/05/06 01:05:33;;;;;;;1.27;0.80;;;17.80;82.00;;;;;;4868931;29;20201;-75
2023/05/06 01:08:10;;;;;;;0.70;0.70;;;17.80;82.00;;;;;;4875715;29;20193;-75
2023/05/06 01:10:46;;;;;;;1.30;1.03;;;17.80;81.90;;;;;;4870459;29;20287;-74
2023/05/06 01:13:21;;;;;;;0.83;0.70;;;17.80;82.70;;;;;;4868814;29;20642;-74
2023/05/06 01:15:54;;;;;;;1.23;0.97;;;17.80;81.90;;;;;;4870255;29;22466;-74
2023/05/06 01:18:27;;;;;;;1.23;0.50;;;17.70;81.80;;;;;;4869448;29;20262;-74
2023/05/06 01:20:56;;;;;;;0.83;0.73;;;17.70;81.90;;;;;;4869123;29;20330;-73
2023/05/06 01:23:26;;;;;;;1.20;1.10;;;17.70;81.90;;;;;;4872405;29;20891;-75
2023/05/06 01:25:54;;;;;;;1.30;0.93;;;17.70;82.00;;;;;;4867962;29;20253;-74
2023/05/06 01:28:23;;;;;;;0.70;0.47;;;17.70;82.00;;;;;;4874470;29;20208;-73
2023/05/06 01:30:57;;;;;;;0.67;0.67;;;17.60;82.70;;;;;;4868166;29;20224;-74
2023/05/06 01:33:34;;;;;;;0.77;0.77;;;17.60;81.90;;;;;;4875349;29;21587;-74
2023/05/06 01:36:10;;;;;;;1.03;0.73;;;17.60;81.90;;;;;;4868467;29;20204;-74
2023/05/06 01:38:45;;;;;;;1.07;0.70;;;17.60;81.80;;;;;;4872433;29;20228;-73
2023/05/06 01:41:17;;;;;;;1.20;0.87;;;17.60;82.60;;;;;;4870302;29;20219;-74
2023/05/06 01:43:48;;;;;;;1.40;0.50;;;17.60;81.80;;;;;;4868587;29;20250;-74
2023/05/06 01:46:19;;;;;;;1.53;1.40;;;17.60;81.80;;;;;;4872356;29;20297;-74
2023/05/06 01:48:52;;;;;;;0.60;0.60;;;17.50;81.70;;;;;;4865392;29;20208;-74
2023/05/06 01:51:21;;;;;;;0.87;0.50;;;17.50;81.70;;;;;;4874476;29;20199;-74
2023/05/06 01:53:51;;;;;;;4.80;1.00;;;17.50;81.60;;;;;;4869362;29;20212;-74
2023/05/06 01:56:19;;;;;;;2.07;0.70;;;17.50;81.70;;;;;;4873363;29;20205;-74
2023/05/06 01:58:47;;;;;;;0.40;0.40;;;17.50;81.70;;;;;;4867369;29;20206;-74
2023/05/06 02:01:15;;;;;;;1.80;1.23;;;17.40;81.70;;;;;;4871544;29;20228;-74
2023/05/06 02:03:44;;;;;;;0.80;0.80;;;17.40;81.70;;;;;;4873862;29;20288;-74
2023/05/06 02:06:12;;;;;;;0.53;0.47;;;17.40;81.90;;;;;;4865106;29;20201;-74
2023/05/06 02:08:40;;;;;;;4.23;1.60;;;17.40;81.90;;;;;;4870950;29;20221;-74
2023/05/06 02:11:10;;;;;;;0.53;0.53;;;17.30;81.90;;;;;;4861003;29;20654;-74
2023/05/06 02:13:38;;;;;;;0.47;0.43;;;17.30;81.90;;;;;;4863863;29;20224;-74
2023/05/06 02:16:07;;;;;;;0.90;0.70;;;17.30;81.90;;;;;;4865919;29;20193;-73
2023/05/06 02:18:36;;;;;;;1.97;0.70;;;17.30;81.90;;;;;;4865508;29;20235;-73
2023/05/06 02:21:04;;;;;;;0.83;0.73;;;17.30;82.10;;;;;;4869892;29;20213;-75
2023/05/06 02:23:33;;;;;;;0.93;0.83;;;17.20;81.90;;;;;;4869677;29;20200;-75
2023/05/06 02:26:01;;;;;;;1.23;0.50;;;17.20;81.90;;;;;;4865601;29;20197;-74
2023/05/06 02:28:31;;;;;;;0.67;0.67;;;17.20;82.00;;;;;;4864232;29;20250;-74
2023/05/06 02:30:59;;;;;;;0.83;0.60;;;17.20;82.00;;;;;;4868587;29;20259;-74
2023/05/06 02:33:27;;;;;;;0.47;0.47;;;17.20;82.20;;;;;;4872466;29;20642;-73
2023/05/06 02:35:56;;;;;;;0.63;0.63;;;17.10;82.30;;;;;;4869431;29;20331;-75
2023/05/06 02:38:24;;;;;;;0.77;0.77;;;17.10;82.20;;;;;;4873323;29;20222;-75
2023/05/06 02:40:53;;;;;;;0.60;0.53;;;17.10;82.30;;;;;;4867900;29;20205;-74
2023/05/06 02:43:21;;;;;;;0.27;0.20;;;17.00;82.20;;;;;;4869868;29;20220;-73
2023/05/06 02:45:51;;;;;;;6.43;0.53;;;17.00;82.30;;;;;;4864106;29;20273;-74
2023/05/06 02:48:20;;;;;;;0.73;0.43;;;17.00;82.30;;;;;;4868283;29;20285;-73
2023/05/06 02:50:48;;;;;;;1.30;0.80;;;17.00;82.30;;;;;;4870118;29;20205;-74
2023/05/06 02:53:16;;;;;;;1.90;0.63;;;17.00;82.40;;;;;;4873291;29;20540;-74
2023/05/06 02:55:45;;;;;;;2.33;0.93;;;16.90;82.30;;;;;;4862831;29;20280;-74
2023/05/06 02:58:13;;;;;;;1.00;0.87;;;16.90;82.40;;;;;;4869196;29;20217;-74
2023/05/06 03:00:41;;;;;;;0.73;0.73;;;16.90;82.40;;;;;;4868053;29;20248;-76
2023/05/06 03:03:11;;;;;;;0.50;0.50;;;16.80;82.50;;;;;;4864554;29;20237;-73
2023/05/06 03:05:39;;;;;;;2.37;1.80;;;16.80;82.50;;;;;;4866377;29;20620;-75
2023/05/06 03:08:08;;;;;;;0.37;0.37;;;16.80;82.70;;;;;;4868474;29;20197;-73
2023/05/06 03:10:36;;;;;;;1.10;0.80;;;16.80;82.70;;;;;;4861623;29;20194;-74
2023/05/06 03:13:04;;;;;;;0.37;0.33;;;16.70;83.60;;;;;;4869211;29;20237;-74
2023/05/06 03:15:33;;;;;;;0.77;0.60;;;16.70;82.80;;;;;;4866165;29;20206;-74
2023/05/06 03:18:02;;;;;;;0.40;0.40;;;16.70;82.90;;;;;;4869348;29;20197;-74
2023/05/06 03:20:31;;;;;;;1.23;1.13;;;16.60;82.90;;;;;;4870850;29;20204;-73
2023/05/06 03:23:00;;;;;;;2.13;0.43;;;16.60;82.90;;;;;;4870223;29;20260;-74
2023/05/06 03:25:28;;;;;;;0.60;0.60;;;16.60;83.00;;;;;;4869721;29;20262;-73
2023/05/06 03:27:57;;;;;;;0.43;0.43;;;16.60;83.10;;;;;;4874111;29;20193;-74
2023/05/06 03:30:25;;;;;;;0.70;0.57;;;16.60;83.10;;;;;;4871277;29;20194;-74
2023/05/06 03:32:55;;;;;;;0.77;0.77;;;16.60;83.10;;;;;;4866062;29;20224;-75
2023/05/06 03:35:24;;;;;;;1.00;0.77;;;16.60;83.30;;;;;;4864981;29;20198;-75
2023/05/06 03:37:55;;;;;;;0.97;0.87;;;16.60;83.30;;;;;;4872222;29;20229;-73
2023/05/06 03:40:23;;;;;;;0.60;0.60;;;16.60;83.30;;;;;;4871567;29;20228;-75
2023/05/06 03:42:52;;;;;;;0.80;0.60;;;16.60;83.50;;;;;;4874667;29;20230;-75
2023/05/06 03:45:20;;;;;;;0.77;0.77;;;16.60;83.40;;;;;;4868927;29;20230;-75
2023/05/06 03:47:48;;;;;;;0.57;0.57;;;16.60;83.40;;;;;;4865589;29;20305;-76
2023/05/06 03:50:17;;;;;;;1.33;1.23;;;16.60;83.40;;;;;;4870901;29;20770;-75
2023/05/06 03:52:45;;;;;;;0.37;0.37;;;16.60;83.40;;;;;;4873906;29;20197;-74
2023/05/06 03:55:15;;;;;;;1.33;0.77;;;16.60;83.40;;;;;;4868516;29;20644;-75
2023/05/06 03:57:43;;;;;;;0.40;0.40;;;16.60;83.40;;;;;;4873745;29;20288;-75
2023/05/06 04:00:13;;;;;;;0.33;0.33;;;16.70;83.50;;;;;;4874463;29;20213;-75
2023/05/06 04:02:42;;;;;;;0.43;0.43;;;16.70;83.40;;;;;;4872216;29;20684;-75
2023/05/06 04:05:10;;;;;;;0.63;0.47;;;16.70;83.40;;;;;;4864831;29;20201;-74
2023/05/06 04:07:39;;;;;;;0.87;0.87;;;16.70;83.40;;;;;;4870638;29;20582;-74
2023/05/06 04:10:09;;;;;;;0.70;0.70;;;16.70;83.40;;;;;;4869701;29;21007;-75
2023/05/06 04:12:38;;;;;;;0.60;0.60;;;16.80;83.60;;;;;;4863515;29;20210;-78
2023/05/06 04:15:08;;;;;;;0.80;0.70;;;16.80;83.50;;;;;;4862435;29;20296;-74
2023/05/06 04:17:36;;;;;;;1.10;0.80;;;16.80;83.50;;;;;;4872271;29;20201;-75
2023/05/06 04:20:06;;;;;;;0.20;0.20;;;16.80;83.40;;;;;;4867817;29;20713;-74
2023/05/06 04:22:35;;;;;;;0.77;0.63;;;16.90;83.40;;;;;;4869898;29;20316;-78
2023/05/06 04:25:03;;;;;;;0.87;0.80;;;16.90;83.40;;;;;;4872516;29;20221;-75
2023/05/06 04:27:32;;;;;;;0.87;0.87;;;16.90;83.40;;;;;;4872546;29;20315;-75
2023/05/06 04:30:02;;;;;;;0.97;0.70;;;17.00;83.40;;;;;;4868146;29;20196;-76
2023/05/06 04:32:30;;;;;;;4.33;2.20;;;17.00;83.50;;;;;;4871606;29;20209;-75
2023/05/06 04:34:59;;;;;;;1.10;0.93;;;17.00;83.50;;;;;;4874866;29;20650;-75
2023/05/06 04:37:27;;;;;;;2.27;0.73;;;17.10;83.50;;;;;;4867079;29;20675;-75
2023/05/06 04:39:56;;;;;;;12.80;1.13;;;17.10;83.50;;;;;;4873125;29;20661;-75
2023/05/06 04:42:24;;;;;;;1.47;1.00;;;17.10;83.50;;;;;;4873022;29;20197;-76
2023/05/06 04:44:52;;;;;;;1.00;0.90;;;17.20;83.60;;;;;;4872913;29;20205;-76
2023/05/06 04:47:22;;;;;;;1.80;0.97;;;17.30;83.50;;;;;;4873187;29;20568;-75
2023/05/06 04:49:50;;;;;;;2.03;1.10;;;17.30;83.30;;;;;;4868978;29;20201;-75
2023/05/06 04:52:18;;;;;;;2.93;1.43;;;17.40;83.30;;;;;;4870031;29;20241;-75
2023/05/06 04:54:49;;;;;;;1.13;0.80;;;17.40;83.30;;;;;;4873215;29;20627;-76
2023/05/06 04:57:17;;;;;;;1.90;1.33;;;17.40;83.00;;;;;;4870213;29;20276;-76
2023/05/06 04:59:46;;;;;;;1.67;1.03;;;17.50;82.90;;;;;;4866795;29;20895;-76
2023/05/06 05:02:17;;;;;;;9.17;1.97;;;17.60;82.90;;;;;;4869155;29;20245;-75
2023/05/06 05:04:47;;;;;;;1.57;1.00;;;17.60;82.60;;;;;;4872855;29;20201;-76
2023/05/06 05:07:15;;;;;;;2.10;1.27;;;17.60;81.60;;;;;;4870979;29;20297;-75
2023/05/06 05:09:44;;;;;;;1.30;0.90;;;17.70;81.60;;;;;;4872243;29;20201;-75
2023/05/06 05:12:12;;;;;;;2.83;2.03;;;17.70;81.90;;;;;;4865331;29;20312;-75
2023/05/06 05:14:45;;;;;;;1.50;1.20;;;17.80;81.50;;;;;;4870071;29;20210;-75
2023/05/06 05:17:13;;;;;;;1.87;1.47;;;17.80;81.50;;;;;;4871599;29;20203;-75
2023/05/06 05:19:44;;;;;;;1.27;0.90;;;17.90;81.40;;;;;;4876917;29;20230;-75
2023/05/06 05:22:17;;;;;;;2.63;1.23;;;18.00;81.50;;;;;;4873217;29;20209;-77
2023/05/06 05:24:48;;;;;;;1.10;1.00;;;18.00;80.50;;;;;;4876019;29;20220;-75
2023/05/06 05:27:16;;;;;;;2.40;1.37;;;18.10;80.50;;;;;;4874384;29;20532;-75
2023/05/06 05:29:45;;;;;;;2.97;1.70;;;18.20;80.00;;;;;;4872698;29;20201;-75
2023/05/06 05:32:13;;;;;;;2.90;1.10;;;18.30;79.70;;;;;;4870088;29;20205;-74
2023/05/06 05:34:42;;;;;;;0.93;0.80;;;18.40;79.80;;;;;;4872048;29;20537;-75
2023/05/06 05:37:10;;;;;;;0.93;0.90;;;18.40;79.60;;;;;;4871776;29;20607;-75
2023/05/06 05:39:40;;;;;;;2.23;1.17;;;18.50;77.80;;;;;;4868549;29;20615;-76
2023/05/06 05:42:08;;;;;;;2.50;1.10;;;18.60;78.10;;;;;;4872022;29;20305;-74
2023/05/06 05:44:36;;;;;;;1.97;0.80;;;18.60;78.20;;;;;;4868546;29;20311;-76
2023/05/06 05:47:05;;;;;;;2.80;1.07;;;18.60;76.80;;;;;;4872010;29;20197;-78
2023/05/06 05:49:36;;;;;;;1.53;0.90;;;18.70;76.90;;;;;;4873236;29;20750;-76
2023/05/06 05:52:06;;;;;;;6.80;1.03;;;18.70;77.20;;;;;;4871185;29;20251;-77
2023/05/06 05:54:41;;;;;;;3.97;1.77;;;18.80;76.50;;;;;;4866870;29;20232;-75
2023/05/06 05:57:11;;;;;;;2.00;1.23;;;18.80;76.60;;;;;;4871751;29;20261;-75
2023/05/06 05:59:40;;;;;;;1.30;0.87;;;18.90;76.70;;;;;;4867901;29;20197;-77
2023/05/06 06:02:08;;;;;;;3.20;1.13;;;19.00;76.10;;;;;;4870804;29;20708;-77
2023/05/06 06:04:36;;;;;;;3.15;1.63;;;19.10;76.10;;;;;;4863395;29;20281;-77
2023/05/06 06:07:05;;;;;;;1.52;0.90;;;19.10;76.00;;;;;;4874255;29;20197;-77
2023/05/06 06:09:34;;;;;;;0.90;0.60;;;19.30;76.30;;;;;;4872184;29;20201;-75
2023/05/06 06:12:05;;;;;;;1.73;1.00;;;19.30;75.20;;;;;;4873562;29;20197;-77
2023/05/06 06:14:35;;;;;;;3.08;1.77;;;19.30;74.70;;;;;;4848774;29;20205;-75
2023/05/06 06:17:06;;;;;;;2.97;1.30;;;19.50;75.10;;;;;;4867850;29;20350;-77
2023/05/06 06:19:35;;;;;;;1.30;1.10;;;19.50;74.70;;;;;;4869118;29;20197;-76
2023/05/06 06:22:03;;;;;;;2.67;1.02;;;19.60;74.50;;;;;;4869862;29;20228;-75
2023/05/06 06:24:35;;;;;;;1.98;1.13;;;19.60;74.50;;;;;;4877446;29;20637;-77
2023/05/06 06:27:03;;;;;;;1.55;1.02;;;19.70;74.70;;;;;;4870255;29;20197;-76
2023/05/06 06:29:32;;;;;;;2.65;1.50;;;19.90;74.90;;;;;;4868520;29;20428;-77
2023/05/06 06:32:03;;;;;;;2.15;1.23;;;19.90;74.50;;;;;;4853158;29;20213;-78
2023/05/06 06:34:31;;;;;;;2.65;1.05;;;20.00;72.60;;;;;;4874383;29;20201;-75
2023/05/06 06:37:00;;;;;;;4.63;0.77;;;20.00;72.90;;;;;;4870193;29;20205;-74
2023/05/06 06:39:28;;;;;;;4.55;0.90;;;20.10;73.10;;;;;;4872778;29;20642;-75
2023/05/06 06:41:57;;;;;;;1.90;0.88;;;20.20;73.60;;;;;;4869298;29;20205;-74
2023/05/06 06:44:25;;;;;;;3.08;1.00;;;20.20;73.40;;;;;;4870707;29;20217;-75
2023/05/06 06:46:55;;;;;;;1.35;0.98;;;20.40;73.80;;;;;;4873498;29;20564;-75
2023/05/06 06:49:26;;;;;;;0.82;0.60;;;20.50;73.90;;;;;;4872864;29;20208;-76
2023/05/06 06:51:55;;;;;;;0.85;0.80;;;20.50;73.30;;;;;;4867607;29;20236;-76
2023/05/06 06:54:24;;;;;;;1.02;0.75;;;20.60;73.20;;;;;;4858263;29;20221;-76
2023/05/06 06:56:54;;;;;;;1.38;0.80;;;20.60;72.00;;;;;;4868781;29;20261;-75
2023/05/06 06:59:23;;;;;;;1.95;1.23;;;20.60;72.20;;;;;;4874602;29;21868;-75
2023/05/06 07:01:51;;;;;;;5.75;1.27;;;20.70;72.80;;;;;;4874445;29;20253;-77
2023/05/06 07:04:20;;;;;;;2.10;1.02;;;20.80;72.40;;;;;;4871096;29;20237;-74
2023/05/06 07:06:49;;;;;;;0.60;0.60;;;20.90;72.90;;;;;;4869939;29;20193;-75
2023/05/06 07:09:18;;;;;;;0.95;0.80;;;20.90;72.90;;;;;;4869954;29;20225;-75
2023/05/06 07:11:46;;;;;;;2.05;0.98;;;20.90;71.80;;;;;;4869576;29;20260;-77
2023/05/06 07:14:14;;;;;;;10.48;1.20;;;20.90;71.40;;;;;;4870467;29;20236;-75
2023/05/06 07:16:43;;;;;;;1.35;0.75;;;21.00;71.90;;;;;;4873220;29;20281;-76
2023/05/06 07:19:14;;;;;;;0.63;0.63;;;21.10;72.30;;;;;;4865616;29;20193;-74
2023/05/06 07:21:42;;;;;;;1.13;0.77;;;21.10;70.90;;;;;;4867996;29;20197;-74
2023/05/06 07:24:12;;;;;;;0.43;0.43;;;21.20;71.00;;;;;;4869116;29;20594;-76
2023/05/06 07:26:40;;;;;;;0.30;0.30;;;21.30;70.70;;;;;;4865658;29;20225;-77
2023/05/06 07:29:08;;;;;;;0.47;0.40;;;21.30;70.80;;;;;;4863217;29;20202;-74
2023/05/06 07:31:37;;;;;;;1.58;0.52;;;21.40;70.50;;;;;;4875351;29;20718;-75
2023/05/06 07:34:06;;;;;;;2.33;1.50;;;21.50;70.50;;;;;;4874840;29;20731;-75
2023/05/06 07:36:39;;;;;;;1.50;1.00;;;21.50;69.90;;;;;;4877110;29;20754;-75
2023/05/06 07:39:08;;;;;;;0.75;0.68;;;21.60;69.70;;;;;;4877740;29;20287;-75
2023/05/06 07:41:38;;;;;;;0.80;0.60;;;21.60;67.70;;;;;;4878760;29;20224;-76
2023/05/06 07:44:06;;;;;;;2.53;0.88;;;21.60;66.60;;;;;;4877877;29;20208;-75
2023/05/06 07:46:34;;;;;;;0.70;0.60;;;21.60;66.90;;;;;;4877431;29;20284;-75
2023/05/06 07:49:03;;;;;;;1.65;0.75;;;21.60;67.10;;;;;;4872829;29;20251;-74
2023/05/06 07:51:31;;;;;;;0.75;0.75;;;21.60;67.20;;;;;;4873080;29;20244;-75
2023/05/06 07:54:00;;;;;;;0.80;0.80;;;21.60;67.50;;;;;;4880477;29;20232;-75
2023/05/06 07:56:28;;;;;;;1.17;0.70;;;21.70;68.30;;;;;;4875009;29;20201;-75
2023/05/06 07:58:58;;;;;;;2.05;1.33;;;21.70;68.40;;;;;;4880512;29;20993;-74
2023/05/06 08:01:28;;;;;;;0.95;0.57;;;21.80;68.90;;;;;;4875225;29;20197;-74
2023/05/06 08:03:56;;;;;;;1.00;0.90;;;21.90;69.10;;;;;;4879647;29;20209;-75
2023/05/06 08:06:25;;;;;;;0.82;0.45;;;21.80;67.10;;;;;;4877208;29;20609;-76
2023/05/06 08:08:56;;;;;;;2.15;1.27;;;21.80;66.20;;;;;;4876445;29;20201;-75
2023/05/06 08:11:24;;;;;;;1.95;0.85;;;21.80;65.30;;;;;;4873466;29;20241;-75
2023/05/06 08:13:57;;;;;;;0.93;0.70;;;21.90;65.10;;;;;;4872937;29;20642;-74
2023/05/06 08:16:25;;;;;;;1.42;0.93;;;21.90;64.70;;;;;;4878491;29;20197;-74
2023/05/06 08:18:53;;;;;;;4.55;2.00;;;21.90;64.40;;;;;;4867907;29;20213;-75
2023/05/06 08:21:21;;;;;;;1.13;0.75;;;21.90;65.10;;;;;;4876407;29;20257;-75
2023/05/06 08:23:52;;;;;;;1.10;0.80;;;22.00;65.80;;;;;;4873157;29;20328;-74
2023/05/06 08:26:21;;;;;;;0.75;0.68;;;22.10;66.30;;;;;;4876743;29;20221;-75
2023/05/06 08:28:49;;;;;;;2.05;0.93;;;22.20;66.50;;;;;;4877920;29;20260;-76
2023/05/06 08:31:19;;;;;;;1.55;0.70;;;22.30;66.20;;;;;;4868939;29;20290;-75
2023/05/06 08:33:47;;;;;;;0.57;0.50;;;22.40;65.20;;;;;;4874988;29;20197;-77
2023/05/06 08:36:16;;;;;;;1.08;0.75;;;22.40;65.00;;;;;;4867572;29;20793;-76
2023/05/06 08:38:49;;;;;;;1.38;1.05;;;22.50;65.00;;;;;;4878272;29;20289;-78
2023/05/06 08:41:20;;;;;;;1.17;0.82;;;22.50;64.60;;;;;;4874595;29;20710;-75
2023/05/06 08:43:51;;;;;;;1.15;0.60;;;22.60;64.60;;;;;;4877147;29;20213;-76
2023/05/06 08:46:23;;;;;;;1.27;0.82;;;22.60;63.90;;;;;;4835069;29;20237;-76
2023/05/06 08:48:53;;;;;;;0.85;0.57;;;22.60;62.30;;;;;;4875504;29;20197;-78
2023/05/06 08:51:24;;;;;;;1.30;0.70;;;22.60;62.90;;;;;;4877489;29;20746;-75
2023/05/06 08:53:55;;;;;;;1.05;0.68;;;22.70;62.90;;;;;;4878599;29;20205;-76
2023/05/06 08:56:28;;;;;;;1.08;0.70;;;22.70;62.70;;;;;;4877630;29;20197;-75
2023/05/06 08:58:58;;;;;;;0.80;0.70;;;22.70;62.40;;;;;;4874761;29;20225;-75
2023/05/06 09:01:28;;;;;;;0.68;0.52;;;22.70;61.60;;;;;;4875802;29;20265;-76
2023/05/06 09:03:58;;;;;;;0.82;0.70;;;22.80;59.90;;;;;;4878582;29;20197;-75
2023/05/06 09:06:26;;;;;;;1.02;0.77;;;22.70;58.90;;;;;;4874791;29;20229;-75
2023/05/06 09:08:57;;;;;;;0.88;0.88;;;22.70;59.40;;;;;;4870969;29;20280;-76
2023/05/06 09:11:28;;;;;;;0.75;0.75;;;22.80;60.10;;;;;;4873084;29;20280;-76
2023/05/06 09:14:10;;;;;;;7.05;0.70;;;22.80;60.70;;;;;;4878208;29;20332;-75
2023/05/06 09:16:42;;;;;;;1.45;0.82;;;22.80;61.00;;;;;;4872311;29;20204;-75
2023/05/06 09:19:11;;;;;;;2.45;0.93;;;22.90;60.10;;;;;;4869959;29;20206;-78
2023/05/06 09:21:41;;;;;;;1.10;0.50;;;22.90;61.40;;;;;;4870355;29;20715;-75
2023/05/06 09:24:11;;;;;;;0.80;0.65;;;23.00;60.50;;;;;;4879292;29;20236;-77
2023/05/06 09:26:44;;;;;;;0.60;0.60;;;23.00;59.90;;;;;;4876150;29;20268;-78
2023/05/06 09:29:13;;;;;;;1.10;0.95;;;23.00;59.50;;;;;;4876563;29;20197;-77
2023/05/06 09:31:44;;;;;;;0.52;0.50;;;23.00;58.90;;;;;;4872970;29;20240;-76
2023/05/06 09:34:13;;;;;;;1.00;0.80;;;23.00;59.20;;;;;;4871186;29;20266;-75
2023/05/06 09:36:41;;;;;;;1.88;1.25;;;23.00;58.00;;;;;;4870679;29;20194;-76
2023/05/06 09:39:10;;;;;;;0.55;0.55;;;23.00;58.60;;;;;;4874054;29;20228;-76
2023/05/06 09:41:38;;;;;;;1.65;0.90;;;23.10;58.90;;;;;;4875271;29;20208;-77
2023/05/06 09:44:07;;;;;;;0.50;0.30;;;23.10;58.80;;;;;;4874230;29;20272;-76
2023/05/06 09:46:36;;;;;;;0.60;0.50;;;23.10;58.40;;;;;;4875267;29;20257;-74
2023/05/06 09:49:06;;;;;;;6.07;0.93;;;23.00;58.30;;;;;;4870994;29;20201;-75
2023/05/06 09:51:34;;;;;;;1.13;0.88;;;23.00;58.50;;;;;;4874082;29;20201;-76
2023/05/06 09:54:04;;;;;;;0.57;0.57;;;23.10;58.10;;;;;;4866277;29;20663;-76
2023/05/06 09:56:34;;;;;;;1.77;1.20;;;23.00;57.80;;;;;;4871111;29;20261;-75
2023/05/06 09:59:03;;;;;;;1.85;0.65;;;23.10;57.70;;;;;;4875322;29;20197;-75
2023/05/06 10:01:35;;;;;;;0.77;0.60;;;23.20;58.30;;;;;;4875516;29;20253;-77
2023/05/06 10:04:09;;;;;;;0.85;0.80;;;23.30;58.70;;;;;;4877064;29;21067;-75
2023/05/06 10:06:40;;;;;;;1.83;0.90;;;23.30;58.70;;;;;;4874498;29;20707;-74
2023/05/06 10:09:09;;;;;;;1.60;0.85;;;23.30;57.60;;;;;;4878379;29;20205;-78
2023/05/06 10:11:38;;;;;;;1.40;0.70;;;23.40;57.20;;;;;;4867856;29;20253;-76
2023/05/06 10:14:08;;;;;;;1.65;1.00;;;23.40;57.70;;;;;;4876056;29;20627;-75
2023/05/06 10:16:38;;;;;;;1.10;1.00;;;23.40;57.60;;;;;;4874819;29;20640;-74
2023/05/06 10:19:09;;;;;;;1.38;0.63;;;23.50;57.20;;;;;;4874494;29;20197;-76
2023/05/06 10:21:40;;;;;;;1.40;0.68;;;23.60;57.00;;;;;;4875569;29;20336;-75
2023/05/06 10:24:13;;;;;;;0.90;0.60;;;23.60;56.70;;;;;;4877563;29;20201;-76
2023/05/06 10:26:47;;;;;;;1.63;1.05;;;23.70;56.90;;;;;;4875102;29;20224;-75
2023/05/06 10:29:15;;;;;;;2.70;0.52;;;23.80;57.00;;;;;;4866175;29;20229;-75
2023/05/06 10:31:49;;;;;;;1.20;1.10;;;23.80;56.90;;;;;;4871409;29;20201;-76
2023/05/06 10:34:21;;;;;;;1.70;0.98;;;23.90;56.50;;;;;;4873224;29;20661;-76
2023/05/06 10:36:55;;;;;;;0.90;0.73;;;23.90;55.50;;;;;;4863096;29;20220;-75
2023/05/06 10:39:24;;;;;;;1.05;0.95;;;24.00;55.70;;;;;;4874081;29;20216;-77
2023/05/06 10:41:52;;;;;;;1.88;0.95;;;24.00;55.60;;;;;;4864810;29;20205;-76
2023/05/06 10:44:54;;;;;;;2.97;1.08;;;24.00;54.40;;;;;;4871654;29;20253;-77
2023/05/06 10:47:22;;;;;;;1.40;0.88;;;24.10;54.20;;;;;;4872771;29;20212;-75
2023/05/06 10:50:23;;;;;;;1.60;0.93;;;24.00;52.00;;;;;;4870867;29;20193;-78
2023/05/06 10:52:54;;;;;;;0.68;0.63;;;24.10;53.20;;;;;;4875388;29;20201;-77
2023/05/06 10:55:27;;;;;;;0.43;0.40;;;24.10;53.50;;;;;;4873887;29;20197;-77
2023/05/06 10:57:56;;;;;;;0.70;0.70;;;24.20;53.50;;;;;;4876837;29;20650;-75
2023/05/06 11:00:25;;;;;;;1.45;0.95;;;24.20;53.70;;;;;;4875659;29;20245;-77
2023/05/06 11:02:57;;;;;;;1.83;0.90;;;24.30;54.40;;;;;;4871861;29;20216;-77
2023/05/06 11:05:27;;;;;;;1.38;1.00;;;24.30;53.60;;;;;;4867172;29;20204;-78
2023/05/06 11:08:09;;;;;;;1.75;0.95;;;24.40;53.70;;;;;;4875253;29;20237;-76
2023/05/06 11:10:38;;;;;;;2.25;0.90;;;24.40;53.60;;;;;;4864784;29;20233;-77
2023/05/06 11:13:20;;;;;;;1.08;0.73;;;24.40;52.20;;;;;;4869627;29;20670;-76
2023/05/06 11:15:50;;;;;;;3.90;0.85;;;24.50;52.60;;;;;;4870021;29;20200;-78
2023/05/06 11:18:41;;;;;;;0.68;0.60;;;24.50;52.90;;;;;;4875149;29;20201;-77
2023/05/06 11:21:42;;;;;;;1.08;0.70;;;24.50;53.10;;;;;;4872363;29;20248;-75
2023/05/06 11:24:12;;;;;;;3.38;0.55;;;24.60;53.50;;;;;;4873677;29;20231;-76
2023/05/06 11:26:44;;;;;;;1.33;0.75;;;24.60;53.10;;;;;;4870670;29;20221;-77
2023/05/06 11:29:15;;;;;;;0.82;0.60;;;24.70;52.10;;;;;;4872413;29;20253;-76
2023/05/06 11:31:44;;;;;;;2.70;1.00;;;24.60;50.50;;;;;;4865084;29;20205;-76
2023/05/06 11:34:18;;;;;;;2.08;0.93;;;24.60;51.20;;;;;;4860406;29;20725;-76
2023/05/06 11:36:55;;;;;;;1.63;1.10;;;24.60;51.70;;;;;;4866892;29;20207;-77
2023/05/06 11:39:24;;;;;;;0.80;0.45;;;24.60;51.40;;;;;;4875197;29;20617;-77
2023/05/06 11:41:53;;;;;;;1.05;0.80;;;24.60;50.60;;;;;;4870938;29;20288;-75
2023/05/06 11:44:29;;;;;;;1.13;0.73;;;24.70;50.40;;;;;;4867328;29;20281;-75
2023/05/06 11:46:59;;;;;;;0.75;0.60;;;24.60;50.10;;;;;;4860129;29;20277;-75
2023/05/06 11:49:28;;;;;;;1.10;0.57;;;24.60;50.90;;;;;;4861637;29;20212;-75
2023/05/06 11:51:57;;;;;;;3.22;0.65;;;24.60;51.50;;;;;;4860015;29;20285;-77
2023/05/06 11:54:27;;;;;;;1.02;0.68;;;24.60;50.40;;;;;;4868887;29;20674;-75
2023/05/06 11:56:56;;;;;;;0.57;0.50;;;24.60;50.70;;;;;;4865168;29;20561;-76
2023/05/06 11:59:32;;;;;;;1.02;0.80;;;24.60;51.00;;;;;;4878470;29;20645;-77
2023/05/06 12:02:01;;;;;;;0.50;0.50;;;24.70;51.20;;;;;;4875448;29;20197;-75
2023/05/06 12:04:38;;;;;;;0.50;0.50;;;24.70;49.80;;;;;;4869635;29;20260;-76
2023/05/06 12:07:09;;;;;;;0.93;0.65;;;24.70;49.50;;;;;;4865953;29;20272;-75
2023/05/06 12:09:38;;;;;;;4.35;1.45;;;24.80;49.10;;;;;;4874080;29;20288;-77
2023/05/06 12:12:08;;;;;;;1.08;0.88;;;24.80;49.10;;;;;;4855733;29;20237;-78
2023/05/06 12:14:37;;;;;;;1.48;0.50;;;24.80;49.80;;;;;;4877056;29;20261;-77
2023/05/06 12:17:05;;;;;;;0.70;0.50;;;24.80;49.00;;;;;;4868830;29;20705;-75
2023/05/06 12:19:34;;;;;;;0.40;0.40;;;24.90;49.00;;;;;;4868233;29;20209;-75
2023/05/06 12:22:18;;;;;;;0.40;0.40;;;24.90;48.20;;;;;;4871848;29;20249;-78
2023/05/06 12:24:47;;;;;;;1.08;0.60;;;24.90;47.50;;;;;;4878454;29;20611;-75
2023/05/06 12:27:28;;;;;;;1.23;0.55;;;24.90;48.20;;;;;;4876845;29;20237;-76
2023/05/06 12:29:57;;;;;;;0.80;0.50;;;24.90;47.20;;;;;;4878449;29;20205;-75
2023/05/06 12:32:25;;;;;;;0.85;0.60;;;24.80;47.00;;;;;;4877816;29;20190;-77
2023/05/06 12:34:55;;;;;;;1.80;1.15;;;24.90;47.40;;;;;;4875351;29;20204;-76
2023/05/06 12:37:29;;;;;;;1.20;0.70;;;24.80;47.00;;;;;;4877450;29;20197;-76
2023/05/06 12:39:58;;;;;;;0.65;0.43;;;24.90;47.00;;;;;;4875922;29;20312;-77
2023/05/06 12:42:27;;;;;;;3.50;0.93;;;24.80;46.50;;;;;;4880077;29;20208;-76
2023/05/06 12:44:55;;;;;;;2.20;1.05;;;24.90;46.80;;;;;;4877689;29;20560;-77
2023/05/06 12:47:25;;;;;;;0.40;0.40;;;24.80;45.90;;;;;;4867191;29;20240;-75
2023/05/06 12:49:56;;;;;;;1.33;0.85;;;24.90;47.00;;;;;;4868260;29;20209;-76
2023/05/06 12:52:44;;;;;;;1.33;0.77;;;24.90;47.60;;;;;;4884359;29;20298;-77
2023/05/06 12:55:12;;;;;;;0.47;0.32;;;25.00;48.00;;;;;;4874444;29;20229;-76
2023/05/06 12:57:41;;;;;;;0.30;0.30;;;25.00;48.10;;;;;;4874825;29;20558;-76
2023/05/06 13:00:11;;;;;;;0.55;0.35;;;25.00;47.30;;;;;;4868409;29;20572;-78
2023/05/06 13:02:40;;;;;;;0.40;0.40;;;25.10;47.60;;;;;;4878741;29;20201;-76